Time;durP1;ratioP1;P1;durP2;ratioP2;P2;SDS_P1;SDS_P2;PMS_P1;PMS_P2;Temp;Humidity;BMP_temperature;BMP_pressure;BME280_temperature;BME280_humidity;BME280_pressure;Samples;Min_cycle;Max_cycle;Signal;HPM_P1;HPM_P2
2021/07/29 00:01:37;;;;;;;3.50;3.20;;;;;;;19.75;74.34;95372.88;5010024;28;20049;-61
2021/07/29 00:04:02;;;;;;;3.85;3.20;;;;;;;19.72;74.78;95381.69;5009327;28;20030;-61
2021/07/29 00:06:27;;;;;;;3.53;2.67;;;;;;;18.91;75.64;95384.22;5009668;28;20034;-62
2021/07/29 00:08:53;;;;;;;3.25;2.90;;;;;;;19.00;75.72;95387.50;5009472;28;20030;-61
2021/07/29 00:11:19;;;;;;;3.80;3.50;;;;;;;19.07;75.02;95384.16;5009879;28;20042;-61
2021/07/29 00:13:45;;;;;;;3.70;3.40;;;;;;;18.88;76.08;95390.28;5008450;28;20073;-61
2021/07/29 00:16:10;;;;;;;3.50;3.28;;;;;;;19.13;76.52;95380.84;5009175;28;20085;-61
2021/07/29 00:21:19;;;;;;;7.40;4.22;;;;;;;19.39;76.13;95384.84;5009631;28;20061;-61
2021/07/29 00:23:48;;;;;;;6.68;4.30;;;;;;;19.40;75.85;95378.34;5009576;28;20392;-61
2021/07/29 00:26:13;;;;;;;5.00;4.38;;;;;;;19.56;75.99;95389.84;5024344;28;20042;-61
2021/07/29 00:28:38;;;;;;;5.22;4.05;;;;;;;19.46;75.73;95371.53;5009575;28;20405;-62
2021/07/29 00:31:04;;;;;;;4.78;3.65;;;;;;;19.68;75.97;95381.63;5009467;28;20049;-61
2021/07/29 00:33:29;;;;;;;4.60;4.20;;;;;;;19.63;75.38;95378.44;5011160;28;20112;-62
2021/07/29 00:35:54;;;;;;;7.07;4.47;;;;;;;19.72;75.24;95371.69;5008658;28;20419;-62
2021/07/29 00:38:20;;;;;;;8.75;5.18;;;;;;;19.79;75.12;95378.34;5024196;28;20058;-61
2021/07/29 00:40:45;;;;;;;3.90;3.60;;;;;;;19.74;74.96;95369.41;5007987;28;20037;-61
2021/07/29 00:43:14;;;;;;;4.43;3.95;;;;;;;19.73;75.00;95373.22;5024056;28;20046;-62
2021/07/29 00:45:39;;;;;;;3.88;3.40;;;;;;;19.76;75.06;95377.16;5010752;28;20037;-62
2021/07/29 00:48:05;;;;;;;5.10;4.47;;;;;;;19.82;74.63;95381.13;5009145;28;20038;-62
2021/07/29 00:50:31;;;;;;;4.95;4.55;;;;;;;19.81;74.99;95378.75;5009024;28;20042;-61
2021/07/29 00:52:56;;;;;;;8.18;4.53;;;;;;;19.72;74.69;95377.06;5008521;28;20038;-62
2021/07/29 00:55:22;;;;;;;5.35;4.45;;;;;;;19.76;75.01;95387.94;5007436;28;20053;-62
2021/07/29 00:57:47;;;;;;;4.60;3.67;;;;;;;19.68;74.62;95388.94;5008393;28;20088;-62
2021/07/29 01:00:13;;;;;;;6.05;5.38;;;;;;;19.69;75.09;95379.69;5009636;28;20022;-61
2021/07/29 01:02:39;;;;;;;6.95;5.30;;;;;;;19.64;74.80;95369.97;5009001;28;20483;-61
2021/07/29 01:05:08;;;;;;;8.88;5.78;;;;;;;19.60;74.94;95369.13;5024006;28;20579;-61
2021/07/29 01:07:34;;;;;;;4.78;3.95;;;;;;;19.59;75.09;95370.25;5007815;28;20070;-62
2021/07/29 01:09:59;;;;;;;4.82;4.40;;;;;;;19.60;75.17;95357.53;5008101;28;20058;-62
2021/07/29 01:12:25;;;;;;;5.97;4.40;;;;;;;19.70;75.68;95348.88;5010690;28;20485;-61
2021/07/29 01:14:50;;;;;;;5.53;3.38;;;;;;;19.80;75.26;95369.09;5023819;28;20038;-62
2021/07/29 01:17:15;;;;;;;3.40;3.10;;;;;;;19.83;74.34;95361.09;5008429;28;20045;-62
2021/07/29 01:19:41;;;;;;;5.25;3.10;;;;;;;19.90;74.34;95363.13;5008557;28;20038;-61
2021/07/29 01:22:06;;;;;;;3.03;2.83;;;;;;;19.88;74.53;95377.00;5008363;28;20488;-62
2021/07/29 01:24:31;;;;;;;3.85;3.55;;;;;;;19.84;74.48;95369.97;5010397;28;20105;-61
2021/07/29 01:26:57;;;;;;;3.47;3.08;;;;;;;19.82;74.78;95374.94;5008024;28;20042;-62
2021/07/29 01:29:22;;;;;;;4.38;3.97;;;;;;;19.81;74.41;95368.78;5008751;28;20396;-62
2021/07/29 01:31:48;;;;;;;7.10;3.78;;;;;;;19.82;74.57;95358.75;5008568;28;20561;-62
2021/07/29 01:34:14;;;;;;;4.85;3.50;;;;;;;19.89;74.59;95367.75;5008571;28;20046;-62
2021/07/29 01:36:39;;;;;;;4.95;4.22;;;;;;;19.82;74.16;95364.94;5008314;28;20108;-62
2021/07/29 01:39:05;;;;;;;6.18;3.03;;;;;;;19.85;74.24;95363.41;5008370;28;20631;-62
2021/07/29 01:41:30;;;;;;;5.72;2.90;;;;;;;19.92;74.50;95358.16;5023455;28;20034;-62
2021/07/29 01:43:56;;;;;;;4.03;3.08;;;;;;;19.93;74.39;95359.72;5008387;28;20495;-62
2021/07/29 01:46:21;;;;;;;3.28;2.58;;;;;;;19.88;73.91;95360.00;5008210;28;20407;-62
2021/07/29 01:48:47;;;;;;;3.47;3.13;;;;;;;19.97;73.88;95376.78;5008500;28;20149;-62
2021/07/29 01:51:12;;;;;;;3.20;2.67;;;;;;;19.91;74.02;95361.97;5009940;28;20460;-62
2021/07/29 01:53:37;;;;;;;2.92;2.63;;;;;;;20.05;74.06;95385.75;5007060;28;20422;-62
2021/07/29 01:56:07;;;;;;;5.65;3.22;;;;;;;19.98;73.73;95357.50;5022930;28;20042;-62
2021/07/29 01:58:32;;;;;;;2.70;2.53;;;;;;;20.03;73.69;95364.53;5008588;28;20445;-61
2021/07/29 02:00:57;;;;;;;5.55;3.60;;;;;;;20.09;73.77;95370.41;5008723;28;20452;-62
2021/07/29 02:03:22;;;;;;;2.85;2.65;;;;;;;19.99;73.63;95369.09;5010399;28;20080;-62
2021/07/29 02:05:48;;;;;;;3.08;2.78;;;;;;;19.95;73.83;95362.84;5007965;28;20044;-62
2021/07/29 02:08:13;;;;;;;3.67;2.95;;;;;;;19.91;73.66;95364.69;5007459;28;20034;-62
2021/07/29 02:10:39;;;;;;;3.25;3.05;;;;;;;19.93;73.28;95374.00;5023357;28;20392;-62
2021/07/29 02:13:04;;;;;;;3.20;2.97;;;;;;;19.81;73.44;95362.56;5023287;28;20099;-62
2021/07/29 02:15:30;;;;;;;4.60;2.92;;;;;;;19.82;73.15;95369.53;5025237;28;20029;-62
2021/07/29 02:17:59;;;;;;;3.78;2.83;;;;;;;19.84;73.58;95368.03;5007813;28;20153;-62
2021/07/29 02:20:26;;;;;;;3.85;3.45;;;;;;;19.83;73.32;95373.81;5008288;28;20042;-62
2021/07/29 02:22:51;;;;;;;3.92;3.63;;;;;;;19.76;73.60;95376.34;5011132;28;20038;-62
2021/07/29 02:25:18;;;;;;;2.97;2.72;;;;;;;19.70;73.93;95370.47;5026196;28;20056;-61
2021/07/29 02:27:43;;;;;;;5.95;3.25;;;;;;;19.71;74.31;95378.22;5012185;28;20034;-62
2021/07/29 02:30:09;;;;;;;4.22;3.83;;;;;;;19.67;73.92;95377.38;5011390;28;20034;-62
2021/07/29 02:32:35;;;;;;;5.43;3.92;;;;;;;19.65;74.20;95374.22;5011786;28;20026;-62
2021/07/29 02:35:00;;;;;;;3.42;2.83;;;;;;;19.63;74.38;95376.50;5011597;28;20045;-62
2021/07/29 02:37:26;;;;;;;3.58;2.65;;;;;;;19.74;74.43;95382.09;5010762;28;20045;-62
2021/07/29 02:39:51;;;;;;;3.53;3.00;;;;;;;19.79;73.96;95381.03;5010416;28;20029;-65
2021/07/29 02:42:17;;;;;;;3.88;3.58;;;;;;;19.82;74.20;95372.25;5013229;28;20107;-62
2021/07/29 02:44:42;;;;;;;3.75;3.42;;;;;;;19.91;74.18;95378.19;5011427;28;20022;-62
2021/07/29 02:47:08;;;;;;;2.63;2.42;;;;;;;19.93;74.00;95382.09;5010835;28;20057;-62
2021/07/29 02:49:35;;;;;;;3.50;3.13;;;;;;;19.95;74.06;95379.03;5009997;28;20038;-62
2021/07/29 02:52:01;;;;;;;2.92;2.53;;;;;;;19.95;73.19;95387.91;5010904;28;20099;-62
2021/07/29 02:54:26;;;;;;;3.20;2.90;;;;;;;19.92;73.10;95375.13;5011304;28;20060;-62
2021/07/29 02:56:51;;;;;;;3.90;3.10;;;;;;;19.99;73.63;95377.97;5010917;28;20637;-62
2021/07/29 02:59:17;;;;;;;3.55;3.03;;;;;;;20.05;73.33;95380.38;5011189;28;20501;-62
2021/07/29 03:01:42;;;;;;;3.70;3.40;;;;;;;20.01;72.81;95377.59;5011115;28;20400;-62
2021/07/29 03:04:08;;;;;;;3.60;3.30;;;;;;;20.07;72.21;95384.28;5011108;28;20130;-62
2021/07/29 03:06:33;;;;;;;5.07;3.60;;;;;;;20.08;72.76;95385.84;5027133;28;20018;-62
2021/07/29 03:08:59;;;;;;;9.02;3.20;;;;;;;20.05;73.38;95383.06;5010712;28;20064;-62
2021/07/29 03:11:25;;;;;;;5.20;3.63;;;;;;;20.09;73.32;95387.41;5010682;28;20042;-62
2021/07/29 03:13:51;;;;;;;3.40;3.10;;;;;;;20.03;72.93;95377.25;5010847;28;20057;-62
2021/07/29 03:16:16;;;;;;;5.25;3.20;;;;;;;20.10;73.06;95388.94;5010423;28;20121;-62
2021/07/29 03:18:41;;;;;;;3.60;2.83;;;;;;;20.11;72.80;95385.09;5012533;28;20164;-62
2021/07/29 03:21:07;;;;;;;3.10;2.70;;;;;;;20.20;72.73;95384.88;5010840;28;20400;-62
2021/07/29 03:23:34;;;;;;;2.95;2.75;;;;;;;20.18;72.69;95384.47;5010153;28;20034;-62
2021/07/29 03:25:59;;;;;;;2.92;2.65;;;;;;;20.26;72.52;95391.53;5025116;28;20076;-62
2021/07/29 03:28:25;;;;;;;3.33;3.05;;;;;;;20.29;72.07;95390.06;5025597;28;20053;-62
2021/07/29 03:30:52;;;;;;;3.17;2.78;;;;;;;20.32;71.85;95390.13;5010430;28;20108;-62
2021/07/29 03:33:17;;;;;;;3.08;2.78;;;;;;;20.34;72.02;95392.47;5011757;28;20022;-62
2021/07/29 03:35:42;;;;;;;4.65;3.03;;;;;;;20.30;71.57;95389.69;5010009;28;20041;-62
2021/07/29 03:38:09;;;;;;;2.70;2.50;;;;;;;20.29;71.80;95395.47;5009989;28;20146;-62
2021/07/29 03:40:35;;;;;;;2.72;2.53;;;;;;;20.10;71.92;95380.84;5010260;28;20038;-63
2021/07/29 03:43:04;;;;;;;2.45;2.25;;;;;;;19.97;72.45;95377.56;5025212;28;20030;-62
2021/07/29 03:45:33;;;;;;;2.28;2.08;;;;;;;19.85;72.09;95379.59;5012100;28;20057;-62
2021/07/29 03:47:59;;;;;;;3.55;2.60;;;;;;;19.71;72.26;95375.53;5009843;28;20045;-62
2021/07/29 03:50:25;;;;;;;2.63;2.22;;;;;;;19.66;72.21;95388.53;5010108;28;20041;-62
2021/07/29 03:52:50;;;;;;;3.70;2.58;;;;;;;19.59;72.82;95381.06;5009361;28;20124;-62
2021/07/29 03:55:16;;;;;;;2.72;2.53;;;;;;;19.58;72.88;95384.09;5009810;28;20121;-62
2021/07/29 03:57:41;;;;;;;2.50;2.30;;;;;;;19.68;72.70;95384.31;5011473;28;20030;-62
2021/07/29 04:00:07;;;;;;;2.53;2.33;;;;;;;19.91;72.71;95397.06;5010173;28;20041;-62
2021/07/29 04:02:33;;;;;;;5.88;2.95;;;;;;;20.07;73.04;95395.09;5025212;28;20061;-62
2021/07/29 04:04:59;;;;;;;2.85;2.30;;;;;;;20.12;72.08;95396.72;5024880;28;20057;-62
2021/07/29 04:07:24;;;;;;;2.65;2.45;;;;;;;20.23;71.91;95392.28;5008887;28;20084;-62
2021/07/29 04:09:50;;;;;;;4.60;3.10;;;;;;;20.28;72.03;95397.38;5009678;28;20030;-63
2021/07/29 04:12:16;;;;;;;3.28;2.97;;;;;;;20.39;70.95;95392.16;5011524;28;20029;-62
2021/07/29 04:14:42;;;;;;;4.75;2.42;;;;;;;20.40;70.74;95393.72;5009618;28;20033;-62
2021/07/29 04:17:08;;;;;;;2.80;2.40;;;;;;;20.40;69.81;95380.97;5009223;28;20096;-62
2021/07/29 04:19:35;;;;;;;4.03;2.22;;;;;;;20.50;70.44;95385.03;5009625;28;20045;-62
2021/07/29 04:22:03;;;;;;;2.47;2.28;;;;;;;20.40;70.56;95383.69;5024369;28;20022;-62
2021/07/29 04:24:29;;;;;;;4.35;2.10;;;;;;;20.33;70.46;95391.69;5011076;28;20034;-62
2021/07/29 04:26:58;;;;;;;11.13;2.63;;;;;;;20.36;70.74;95396.34;5008895;28;20046;-62
2021/07/29 04:29:24;;;;;;;4.72;2.58;;;;;;;20.43;70.30;95399.19;5009420;28;20509;-62
2021/07/29 04:31:51;;;;;;;2.45;2.08;;;;;;;20.68;70.83;95390.75;5024497;28;20104;-62
2021/07/29 04:34:17;;;;;;;2.78;1.90;;;;;;;21.04;69.40;95402.88;5009244;28;20084;-62
2021/07/29 04:36:42;;;;;;;3.65;2.03;;;;;;;21.28;68.59;95394.31;5009266;28;20454;-62
2021/07/29 04:39:08;;;;;;;2.15;1.95;;;;;;;21.51;68.82;95396.19;5008377;28;20558;-62
2021/07/29 04:41:38;;;;;;;2.22;2.00;;;;;;;21.39;68.21;95389.06;5008857;28;20053;-62
2021/07/29 04:44:04;;;;;;;2.38;1.65;;;;;;;21.28;68.50;95388.91;5008547;28;20116;-62
2021/07/29 04:46:29;;;;;;;3.58;2.05;;;;;;;21.28;66.76;95398.94;5008462;28;20121;-62
2021/07/29 04:48:56;;;;;;;1.75;1.65;;;;;;;21.34;66.85;95399.44;5008866;28;20029;-63
2021/07/29 04:51:21;;;;;;;2.28;2.08;;;;;;;21.37;67.58;95402.19;5010862;28;20075;-62
2021/07/29 04:53:47;;;;;;;1.92;1.83;;;;;;;21.36;67.56;95397.94;5008318;28;20042;-62
2021/07/29 04:56:12;;;;;;;2.15;2.00;;;;;;;21.31;67.09;95395.53;5008617;28;20489;-62
2021/07/29 04:58:37;;;;;;;3.88;2.10;;;;;;;21.49;67.92;95379.53;5008967;28;20534;-62
2021/07/29 05:01:04;;;;;;;2.50;1.80;;;;;;;21.71;67.30;95389.47;5008950;28;20464;-63
2021/07/29 05:03:30;;;;;;;2.60;1.80;;;;;;;21.68;66.47;95376.66;5009188;28;20033;-62
2021/07/29 05:05:55;;;;;;;1.80;1.70;;;;;;;21.56;66.69;95384.25;5023250;28;20033;-63
2021/07/29 05:08:20;;;;;;;2.72;2.17;;;;;;;21.55;66.87;95378.06;5007895;28;20033;-63
2021/07/29 05:10:46;;;;;;;3.53;1.95;;;;;;;21.71;66.49;95386.00;5008785;28;20116;-63
2021/07/29 05:13:11;;;;;;;4.78;2.10;;;;;;;21.93;66.57;95398.63;5008640;28;20109;-63
2021/07/29 05:15:37;;;;;;;1.60;1.50;;;;;;;22.26;66.12;95389.69;5010480;28;20025;-63
2021/07/29 05:18:02;;;;;;;2.08;1.92;;;;;;;22.69;66.49;95402.84;5023581;28;20069;-63
2021/07/29 05:20:28;;;;;;;3.08;1.92;;;;;;;23.11;64.21;95399.69;5008522;28;20034;-63
2021/07/29 05:22:53;;;;;;;2.05;1.80;;;;;;;23.32;63.20;95396.34;5007926;28;20029;-66
2021/07/29 05:25:24;;;;;;;4.25;1.90;;;;;;;23.60;62.59;95404.63;5023590;28;20034;-67
2021/07/29 05:27:51;;;;;;;2.25;1.83;;;;;;;23.69;63.18;95401.56;5008237;28;20116;-67
2021/07/29 05:30:17;;;;;;;3.72;2.17;;;;;;;23.64;62.13;95396.50;5010639;28;20026;-67
2021/07/29 05:32:44;;;;;;;3.55;2.30;;;;;;;23.43;62.97;95382.81;5007222;28;20510;-71
2021/07/29 05:35:10;;;;;;;1.70;1.60;;;;;;;23.19;63.38;95389.69;5008897;28;20034;-66
2021/07/29 05:37:36;;;;;;;1.73;1.63;;;;;;;23.05;64.00;95406.63;5022714;28;20691;-69
2021/07/29 05:40:02;;;;;;;2.22;1.50;;;;;;;22.90;64.92;95400.34;5008407;28;20033;-63
2021/07/29 05:42:27;;;;;;;1.92;1.73;;;;;;;22.64;62.98;95400.50;5010160;28;20037;-66
2021/07/29 05:44:52;;;;;;;4.75;2.50;;;;;;;22.47;64.80;95399.16;5007100;28;20120;-63
2021/07/29 05:47:20;;;;;;;3.40;1.60;;;;;;;22.45;65.29;95402.25;5024023;23;20043;-71
2021/07/29 05:49:46;;;;;;;3.35;2.10;;;;;;;22.45;65.29;95404.19;4985074;28;20042;-68
2021/07/29 05:52:11;;;;;;;2.17;1.98;;;;;;;22.38;65.15;95398.72;4985013;28;20533;-72
2021/07/29 05:54:36;;;;;;;2.90;1.90;;;;;;;22.35;64.11;95383.19;4966415;28;20107;-79
2021/07/29 05:57:02;;;;;;;3.35;2.10;;;;;;;22.36;65.38;95382.03;4973627;28;20034;-74
2021/07/29 05:59:27;;;;;;;1.90;1.80;;;;;;;22.51;66.36;95386.44;4969831;28;20058;-75
2021/07/29 06:01:53;;;;;;;3.17;2.58;;;;;;;22.71;65.30;95397.81;4967955;28;20043;-74
2021/07/29 06:04:18;;;;;;;2.30;2.17;;;;;;;22.90;64.84;95413.13;4972328;28;20035;-74
2021/07/29 06:06:45;;;;;;;2.28;1.83;;;;;;;22.97;64.93;95367.03;4974067;28;20488;-74
2021/07/29 06:09:10;;;;;;;2.00;1.80;;;;;;;23.71;62.68;95406.66;4966120;28;20062;-74
2021/07/29 06:11:35;;;;;;;3.88;2.00;;;;;;;24.12;61.94;95404.44;4973337;28;20133;-72
2021/07/29 06:14:01;;;;;;;2.88;1.83;;;;;;;24.11;61.24;95387.38;4972093;28;20477;-69
2021/07/29 06:16:27;;;;;;;2.97;1.98;;;;;;;23.88;59.39;95364.41;4970744;28;20047;-68
2021/07/29 06:19:06;;;;;;;2.67;1.80;;;;;;;23.88;62.46;95389.63;4972633;28;20023;-69
2021/07/29 06:21:32;;;;;;;1.95;1.75;;;;;;;24.04;62.12;95390.06;4973855;28;20543;-69
2021/07/29 06:23:57;;;;;;;3.63;1.75;;;;;;;24.22;62.18;95383.91;4970624;28;20042;-68
2021/07/29 06:26:23;;;;;;;3.92;2.10;;;;;;;24.55;61.65;95397.16;4971737;28;20046;-68
2021/07/29 06:28:48;;;;;;;1.75;1.65;;;;;;;24.41;60.82;95355.59;4972287;28;20488;-69
2021/07/29 06:31:14;;;;;;;3.13;1.70;;;;;;;24.53;60.16;95383.19;4972509;28;20038;-68
2021/07/29 06:33:39;;;;;;;1.80;1.63;;;;;;;24.21;61.82;95366.00;4974449;28;20067;-68
2021/07/29 06:36:05;;;;;;;2.40;1.67;;;;;;;24.05;61.71;95342.69;4972057;28;20055;-68
2021/07/29 06:38:31;;;;;;;2.80;1.98;;;;;;;24.07;61.41;95359.41;4966221;28;20039;-67
2021/07/29 06:40:56;;;;;;;4.35;1.77;;;;;;;24.01;62.19;95352.03;4972247;28;20031;-66
2021/07/29 06:43:21;;;;;;;2.58;2.20;;;;;;;24.00;62.72;95342.28;4970814;28;20054;-68
2021/07/29 06:45:47;;;;;;;2.72;1.90;;;;;;;24.34;61.99;95402.56;4972058;28;20046;-67
2021/07/29 06:48:12;;;;;;;2.00;1.80;;;;;;;24.40;60.58;95400.25;4974203;28;20113;-68
2021/07/29 06:50:37;;;;;;;2.35;2.00;;;;;;;24.45;61.73;95405.31;4972670;28;20039;-67
2021/07/29 06:53:03;;;;;;;6.65;2.17;;;;;;;24.49;59.91;95396.00;4967234;28;20714;-68
2021/07/29 06:55:29;;;;;;;1.90;1.80;;;;;;;24.65;60.51;95395.63;4970004;28;20129;-70
2021/07/29 06:57:54;;;;;;;4.72;1.95;;;;;;;24.90;60.92;95411.94;4972179;28;20030;-70
2021/07/29 07:00:20;;;;;;;2.35;2.13;;;;;;;25.29;59.58;95400.25;4972957;28;20031;-68
2021/07/29 07:02:46;;;;;;;3.33;1.90;;;;;;;25.50;57.37;95399.44;4970651;28;20567;-69
2021/07/29 07:05:11;;;;;;;2.40;2.10;;;;;;;26.02;57.23;95399.63;4972283;28;20519;-69
2021/07/29 07:07:36;;;;;;;3.58;2.30;;;;;;;26.45;56.60;95394.72;4970046;28;20511;-69
2021/07/29 07:10:02;;;;;;;2.70;2.17;;;;;;;26.86;50.26;95405.72;4973972;28;20420;-68
2021/07/29 07:12:27;;;;;;;2.05;1.90;;;;;;;27.31;55.81;95407.69;4974795;28;20031;-69
2021/07/29 07:14:53;;;;;;;3.10;1.90;;;;;;;27.53;54.69;95397.31;4970092;28;20054;-69
2021/07/29 07:17:18;;;;;;;1.83;1.73;;;;;;;27.75;52.98;95404.13;4970297;28;20046;-67
2021/07/29 07:19:47;;;;;;;6.32;2.13;;;;;;;28.06;52.84;95409.59;4970624;28;20505;-68
2021/07/29 07:22:13;;;;;;;2.40;2.20;;;;;;;28.22;52.59;95413.28;4970769;28;20050;-70
2021/07/29 07:24:38;;;;;;;4.32;2.10;;;;;;;28.17;48.86;95391.84;4972775;28;20019;-69
2021/07/29 07:27:06;;;;;;;3.80;2.42;;;;;;;28.40;52.57;95396.63;4975436;28;20047;-74
2021/07/29 07:29:35;;;;;;;2.95;2.35;;;;;;;28.59;50.07;95406.13;4971762;28;20039;-72
2021/07/29 07:32:01;;;;;;;2.25;2.15;;;;;;;28.81;50.37;95401.09;4968668;28;20098;-71
2021/07/29 07:34:26;;;;;;;3.45;2.90;;;;;;;28.15;43.38;95407.13;4971825;28;20042;-71
2021/07/29 07:36:52;;;;;;;3.25;2.20;;;;;;;26.16;47.95;95403.06;4970008;28;20472;-71
2021/07/29 07:39:17;;;;;;;4.07;2.50;;;;;;;26.70;46.16;95411.69;4963608;28;20015;-72
2021/07/29 07:41:42;;;;;;;2.58;2.45;;;;;;;25.65;48.88;95407.16;4971964;28;20043;-71
2021/07/29 07:44:08;;;;;;;2.88;2.30;;;;;;;26.34;46.68;95397.50;4970466;28;20492;-68
2021/07/29 07:46:33;;;;;;;8.27;7.57;;;;;;;26.47;47.15;95388.88;4971344;28;20515;-69
2021/07/29 07:48:58;;;;;;;30.48;22.17;;;;;;;27.60;51.81;95403.47;4971773;28;20039;-70
2021/07/29 07:51:24;;;;;;;11.07;8.65;;;;;;;27.32;44.60;95401.03;4973833;28;20022;-70
2021/07/29 07:53:49;;;;;;;3.20;3.00;;;;;;;26.44;46.04;95404.84;4972383;28;20053;-71
2021/07/29 07:56:15;;;;;;;3.20;3.00;;;;;;;27.14;47.75;95395.78;4990824;28;20037;-80
2021/07/29 07:58:40;;;;;;;4.18;2.42;;;;;;;25.93;47.14;95398.09;4992064;28;20093;-77
2021/07/29 08:01:05;;;;;;;2.75;2.20;;;;;;;26.72;46.01;95389.47;4990964;28;20082;-81
2021/07/29 08:03:31;;;;;;;2.60;2.30;;;;;;;25.69;47.12;95390.78;4994188;28;20072;-79
2021/07/29 08:06:00;;;;;;;2.83;2.38;;;;;;;26.11;48.75;95387.13;4991539;28;20038;-76
2021/07/29 08:08:26;;;;;;;3.03;2.20;;;;;;;26.81;49.91;95391.72;4983176;28;20047;-78
2021/07/29 08:10:52;;;;;;;4.03;2.50;;;;;;;27.41;51.92;95390.41;4972040;28;20057;-77
2021/07/29 08:13:18;;;;;;;2.60;2.40;;;;;;;27.41;49.55;95379.50;4971749;28;20043;-79
2021/07/29 08:15:43;;;;;;;2.83;2.55;;;;;;;25.15;46.06;95387.44;4973549;28;20027;-77
2021/07/29 08:18:11;;;;;;;2.78;2.45;;;;;;;24.61;47.45;95378.50;4970509;28;20500;-76
2021/07/29 08:20:39;;;;;;;2.67;2.55;;;;;;;25.15;47.17;95385.50;4971467;28;20520;-76
2021/07/29 08:23:05;;;;;;;2.47;2.38;;;;;;;25.76;45.62;95379.13;4968636;28;20039;-78
2021/07/29 08:25:30;;;;;;;2.78;2.58;;;;;;;25.54;46.61;95378.38;4971466;28;20065;-78
2021/07/29 08:27:56;;;;;;;3.17;2.50;;;;;;;26.19;49.07;95375.00;4971596;28;20035;-78
2021/07/29 08:30:22;;;;;;;3.42;2.70;;;;;;;26.41;49.38;95370.19;4973779;28;20038;-77
2021/07/29 08:32:47;;;;;;;2.50;2.30;;;;;;;26.25;46.97;95364.44;4970537;28;20046;-78
2021/07/29 08:35:13;;;;;;;4.75;2.90;;;;;;;24.57;48.16;95383.97;4970114;28;20624;-76
2021/07/29 08:37:46;;;;;;;3.10;2.80;;;;;;;23.72;49.28;95387.25;4970753;28;20074;-77
2021/07/29 08:40:18;;;;;;;4.10;2.70;;;;;;;23.31;49.52;95381.22;4977197;28;20042;-76
2021/07/29 08:42:45;;;;;;;3.28;2.70;;;;;;;24.89;51.35;95367.63;4991176;28;20049;-76
2021/07/29 08:45:10;;;;;;;3.47;2.60;;;;;;;25.52;49.70;95369.84;4990953;28;20042;-76
2021/07/29 08:47:36;;;;;;;3.10;2.70;;;;;;;25.55;44.28;95364.38;4989975;28;20042;-76
2021/07/29 08:50:06;;;;;;;3.28;2.72;;;;;;;25.72;46.33;95373.66;4990645;28;20035;-77
2021/07/29 08:52:33;;;;;;;3.55;2.72;;;;;;;25.58;44.00;95369.03;4990312;28;20034;-77
2021/07/29 08:54:59;;;;;;;4.38;3.50;;;;;;;25.02;41.53;95365.25;4972592;28;20389;-77
2021/07/29 08:57:33;;;;;;;3.30;3.00;;;;;;;24.72;45.09;95368.44;4990808;28;20057;-77
2021/07/29 09:00:06;;;;;;;2.90;2.70;;;;;;;25.67;44.74;95368.63;4990508;28;20057;-77
2021/07/29 09:02:32;;;;;;;3.38;2.95;;;;;;;26.31;45.67;95362.06;4990321;28;20039;-78
2021/07/29 09:05:17;;;;;;;2.92;2.72;;;;;;;26.72;43.52;95372.31;4990628;28;20046;-77
2021/07/29 09:07:44;;;;;;;3.05;2.67;;;;;;;26.70;41.46;95359.84;4989834;28;20484;-77
2021/07/29 09:10:19;;;;;;;3.08;2.78;;;;;;;25.91;40.49;95362.31;4972079;28;20035;-76
2021/07/29 09:12:44;;;;;;;3.03;2.83;;;;;;;26.25;39.70;95350.81;4970609;28;20023;-72
2021/07/29 09:15:20;;;;;;;3.78;3.42;;;;;;;26.52;39.47;95366.63;4971167;28;20162;-76
2021/07/29 09:17:46;;;;;;;4.35;3.38;;;;;;;26.82;40.93;95374.16;4969378;28;20035;-70
2021/07/29 09:20:19;;;;;;;2.67;2.47;;;;;;;26.91;38.69;95369.78;4968634;28;20034;-71
2021/07/29 09:22:47;;;;;;;3.40;3.10;;;;;;;27.52;39.48;95368.44;4968538;28;20085;-71
2021/07/29 09:25:13;;;;;;;3.72;3.28;;;;;;;26.54;39.74;95370.50;4959670;28;20047;-70
2021/07/29 09:27:38;;;;;;;3.80;3.40;;;;;;;26.89;41.90;95365.94;4986171;28;20044;-70
2021/07/29 09:30:24;;;;;;;4.13;2.97;;;;;;;27.31;39.75;95353.84;4968407;28;20065;-71
2021/07/29 09:33:05;;;;;;;3.40;3.10;;;;;;;25.88;40.86;95359.59;4969797;28;20571;-71
2021/07/29 09:35:50;;;;;;;3.00;2.83;;;;;;;24.40;44.01;95364.91;4969556;28;20054;-71
2021/07/29 09:38:25;;;;;;;6.30;3.60;;;;;;;24.38;44.35;95370.75;4968803;28;20046;-71
2021/07/29 09:40:55;;;;;;;4.38;3.20;;;;;;;25.23;42.61;95363.69;4964075;28;20121;-71
2021/07/29 09:43:24;;;;;;;3.47;3.28;;;;;;;25.03;42.91;95360.59;4969485;28;20142;-73
2021/07/29 09:45:54;;;;;;;4.20;3.90;;;;;;;26.05;41.31;95347.03;4969721;28;20105;-78
2021/07/29 09:48:24;;;;;;;3.90;3.60;;;;;;;25.66;41.09;95361.63;4971995;28;20030;-74
2021/07/29 09:51:03;;;;;;;3.50;3.30;;;;;;;27.04;40.11;95366.59;4969138;28;20030;-81
2021/07/29 09:53:33;;;;;;;4.20;3.28;;;;;;;26.17;40.64;95354.75;4968168;28;20038;-74
2021/07/29 09:55:59;;;;;;;3.75;3.30;;;;;;;26.10;41.17;95358.31;4965598;28;20528;-69
2021/07/29 09:58:25;;;;;;;5.97;3.22;;;;;;;26.57;40.31;95355.31;4969367;28;20043;-66
2021/07/29 10:00:51;;;;;;;4.05;3.40;;;;;;;26.01;41.50;95363.44;4969585;28;20023;-71
2021/07/29 10:03:21;;;;;;;3.72;3.40;;;;;;;26.40;40.94;95349.53;4971517;28;20049;-74
2021/07/29 10:06:04;;;;;;;4.03;3.63;;;;;;;26.67;40.47;95354.44;4967757;28;20605;-74
2021/07/29 10:08:44;;;;;;;4.30;3.47;;;;;;;27.45;39.60;95350.94;4967707;28;20039;-73
2021/07/29 10:11:16;;;;;;;3.63;3.13;;;;;;;27.81;38.08;95342.34;4966112;28;20512;-74
2021/07/29 10:13:42;;;;;;;3.60;3.20;;;;;;;28.07;38.87;95337.31;4969360;28;20049;-74
2021/07/29 10:16:09;;;;;;;3.58;3.38;;;;;;;26.24;41.01;95340.31;4968911;28;20035;-73
2021/07/29 10:19:02;;;;;;;5.53;3.45;;;;;;;25.93;43.27;95348.28;4970229;28;20027;-73
2021/07/29 10:21:35;;;;;;;4.32;3.13;;;;;;;27.22;40.84;95339.88;4969877;28;20113;-73
2021/07/29 10:24:01;;;;;;;4.10;3.70;;;;;;;26.04;43.06;95346.25;4967337;28;20041;-74
2021/07/29 10:26:32;;;;;;;4.28;3.72;;;;;;;27.11;42.18;95350.16;4987175;28;20496;-72
2021/07/29 10:29:20;;;;;;;3.40;3.10;;;;;;;27.76;40.25;95342.81;4988824;28;20038;-74
2021/07/29 10:31:51;;;;;;;5.18;3.85;;;;;;;27.60;40.27;95348.06;4988566;28;20085;-74
2021/07/29 10:34:28;;;;;;;4.35;4.05;;;;;;;26.42;42.24;95344.50;4988747;28;20495;-74
2021/07/29 10:36:55;;;;;;;3.80;3.50;;;;;;;26.85;41.84;95346.09;4987951;28;20030;-74
2021/07/29 10:39:21;;;;;;;3.88;3.58;;;;;;;26.37;41.45;95312.16;4977526;28;20031;-73
2021/07/29 10:41:48;;;;;;;3.85;3.55;;;;;;;27.44;40.45;95335.75;4969038;28;20077;-73
2021/07/29 10:44:32;;;;;;;3.53;3.33;;;;;;;27.51;40.31;95331.38;4972071;28;20105;-74
2021/07/29 10:47:02;;;;;;;4.10;3.80;;;;;;;26.71;41.38;95344.25;4971991;28;20058;-73
2021/07/29 10:49:45;;;;;;;4.18;3.80;;;;;;;27.35;39.99;95335.47;4972815;28;20113;-74
2021/07/29 10:52:11;;;;;;;3.88;3.58;;;;;;;26.60;42.04;95336.16;4972749;28;20665;-73
2021/07/29 10:54:38;;;;;;;4.15;3.85;;;;;;;27.26;39.62;95337.91;4968766;28;20027;-72
2021/07/29 10:57:05;;;;;;;3.85;3.55;;;;;;;27.91;38.26;95335.97;4970770;28;20043;-76
2021/07/29 10:59:34;;;;;;;6.53;3.90;;;;;;;28.77;37.09;95321.00;4972675;28;20547;-73
2021/07/29 11:02:02;;;;;;;3.75;3.50;;;;;;;29.37;36.82;95318.34;4987366;28;20140;-74
2021/07/29 11:04:29;;;;;;;3.45;3.25;;;;;;;28.64;36.92;95320.81;4972624;28;20035;-74
2021/07/29 11:07:05;;;;;;;4.18;3.92;;;;;;;28.90;38.56;95316.47;4972083;28;20557;-74
2021/07/29 11:09:32;;;;;;;3.28;3.08;;;;;;;28.85;36.31;95319.69;4970081;28;20130;-73
2021/07/29 11:11:59;;;;;;;3.53;3.22;;;;;;;28.03;38.61;95314.72;4972357;28;20035;-76
2021/07/29 11:14:27;;;;;;;3.70;3.40;;;;;;;28.25;37.49;95283.09;4971444;28;20031;-75
2021/07/29 11:16:56;;;;;;;3.75;3.45;;;;;;;28.68;37.46;95315.28;4972191;28;20047;-77
2021/07/29 11:19:21;;;;;;;3.63;3.40;;;;;;;29.39;37.22;95303.06;4972664;28;20404;-76
2021/07/29 11:22:04;;;;;;;4.00;3.63;;;;;;;28.37;37.20;95303.69;4971406;28;20027;-76
2021/07/29 11:24:31;;;;;;;3.65;3.35;;;;;;;28.71;36.41;95300.75;4970263;28;20054;-78
2021/07/29 11:26:57;;;;;;;3.97;3.58;;;;;;;29.36;36.19;95303.88;4972168;28;20031;-75
2021/07/29 11:29:22;;;;;;;4.32;3.53;;;;;;;28.92;36.78;95303.13;4972451;28;20408;-75
2021/07/29 11:31:54;;;;;;;3.85;3.42;;;;;;;28.20;38.24;95289.06;4972369;28;20043;-75
2021/07/29 11:34:31;;;;;;;3.90;3.60;;;;;;;27.24;39.38;95307.50;4971095;28;20042;-75
2021/07/29 11:36:57;;;;;;;3.30;3.00;;;;;;;27.58;39.22;95298.50;4972091;28;20026;-75